sensor_id;sensor_type;location;lat;lon;timestamp;temperature;humidity
21590;DHT22;10957;50.968;6.828;2022-09-13T00:00:50;16.00;99.90
21590;DHT22;10957;50.968;6.828;2022-09-13T00:05:51;16.10;99.90
21590;DHT22;10957;50.968;6.828;2022-09-13T00:10:52;15.50;99.90
21590;DHT22;10957;50.968;6.828;2022-09-13T00:15:53;15.80;99.90
21590;DHT22;10957;50.968;6.828;2022-09-13T00:21:06;15.90;99.90
21590;DHT22;10957;50.968;6.828;2022-09-13T00:26:11;15.90;99.90
21590;DHT22;10957;50.968;6.828;2022-09-13T00:31:12;15.80;99.90
21590;DHT22;10957;50.968;6.828;2022-09-13T00:36:13;15.80;99.90
21590;DHT22;10957;50.968;6.828;2022-09-13T00:41:18;15.60;99.90
21590;DHT22;10957;50.968;6.828;2022-09-13T00:46:37;15.60;99.90
21590;DHT22;10957;50.968;6.828;2022-09-13T00:51:42;15.60;99.90
21590;DHT22;10957;50.968;6.828;2022-09-13T00:56:53;15.70;99.90
21590;DHT22;10957;50.968;6.828;2022-09-13T01:01:55;15.50;99.90
21590;DHT22;10957;50.968;6.828;2022-09-13T01:06:59;15.60;99.90
21590;DHT22;10957;50.968;6.828;2022-09-13T01:12:06;15.50;99.90
21590;DHT22;10957;50.968;6.828;2022-09-13T01:17:08;15.60;99.90
21590;DHT22;10957;50.968;6.828;2022-09-13T01:27:27;15.50;99.90
21590;DHT22;10957;50.968;6.828;2022-09-13T01:38:05;15.40;99.90
21590;DHT22;10957;50.968;6.828;2022-09-13T01:43:22;15.60;99.90
21590;DHT22;10957;50.968;6.828;2022-09-13T01:48:33;15.60;99.90
21590;DHT22;10957;50.968;6.828;2022-09-13T01:59:00;15.30;99.90
21590;DHT22;10957;50.968;6.828;2022-09-13T02:04:08;15.70;99.90
21590;DHT22;10957;50.968;6.828;2022-09-13T02:09:17;15.80;99.90
21590;DHT22;10957;50.968;6.828;2022-09-13T02:14:29;15.40;99.90
21590;DHT22;10957;50.968;6.828;2022-09-13T02:19:52;15.70;99.90
21590;DHT22;10957;50.968;6.828;2022-09-13T02:24:58;15.80;99.90
21590;DHT22;10957;50.968;6.828;2022-09-13T02:30:06;15.60;99.90
21590;DHT22;10957;50.968;6.828;2022-09-13T02:35:31;15.70;99.90
21590;DHT22;10957;50.968;6.828;2022-09-13T02:40:41;15.50;99.90
21590;DHT22;10957;50.968;6.828;2022-09-13T02:51:12;16.00;99.90
21590;DHT22;10957;50.968;6.828;2022-09-13T02:56:29;15.80;99.90
21590;DHT22;10957;50.968;6.828;2022-09-13T03:01:34;15.70;99.90
21590;DHT22;10957;50.968;6.828;2022-09-13T03:06:36;15.70;99.90
21590;DHT22;10957;50.968;6.828;2022-09-13T03:17:04;15.90;99.90
21590;DHT22;10957;50.968;6.828;2022-09-13T03:28:01;16.00;99.90
21590;DHT22;10957;50.968;6.828;2022-09-13T03:33:30;16.10;99.90
21590;DHT22;10957;50.968;6.828;2022-09-13T03:43:52;16.10;99.90
21590;DHT22;10957;50.968;6.828;2022-09-13T03:49:01;16.10;99.90
21590;DHT22;10957;50.968;6.828;2022-09-13T03:54:06;16.10;99.90
21590;DHT22;10957;50.968;6.828;2022-09-13T03:59:08;16.30;99.90
21590;DHT22;10957;50.968;6.828;2022-09-13T04:04:09;16.10;99.90
21590;DHT22;10957;50.968;6.828;2022-09-13T04:09:10;16.10;99.90
21590;DHT22;10957;50.968;6.828;2022-09-13T04:14:11;16.00;99.90
21590;DHT22;10957;50.968;6.828;2022-09-13T04:19:12;16.20;99.90
21590;DHT22;10957;50.968;6.828;2022-09-13T04:24:14;16.10;99.90
21590;DHT22;10957;50.968;6.828;2022-09-13T04:29:16;16.00;99.90
21590;DHT22;10957;50.968;6.828;2022-09-13T04:34:21;16.10;99.90
21590;DHT22;10957;50.968;6.828;2022-09-13T04:39:22;16.10;99.90
21590;DHT22;10957;50.968;6.828;2022-09-13T04:44:23;16.00;99.90
21590;DHT22;10957;50.968;6.828;2022-09-13T04:49:25;16.00;99.90
21590;DHT22;10957;50.968;6.828;2022-09-13T04:54:27;16.10;99.90
21590;DHT22;10957;50.968;6.828;2022-09-13T04:59:28;15.90;99.90
21590;DHT22;10957;50.968;6.828;2022-09-13T05:04:28;16.10;99.90
21590;DHT22;10957;50.968;6.828;2022-09-13T05:09:29;16.30;99.90
21590;DHT22;10957;50.968;6.828;2022-09-13T05:14:30;16.10;99.90
21590;DHT22;10957;50.968;6.828;2022-09-13T05:19:31;16.40;99.90
21590;DHT22;10957;50.968;6.828;2022-09-13T05:24:33;16.30;99.90
21590;DHT22;10957;50.968;6.828;2022-09-13T05:29:34;16.50;99.90
21590;DHT22;10957;50.968;6.828;2022-09-13T05:34:35;16.60;99.90
21590;DHT22;10957;50.968;6.828;2022-09-13T05:39:36;16.30;99.90
21590;DHT22;10957;50.968;6.828;2022-09-13T05:44:37;16.60;99.90
21590;DHT22;10957;50.968;6.828;2022-09-13T05:49:37;16.50;99.90
21590;DHT22;10957;50.968;6.828;2022-09-13T05:54:39;16.60;99.90
21590;DHT22;10957;50.968;6.828;2022-09-13T05:59:40;16.60;99.90
21590;DHT22;10957;50.968;6.828;2022-09-13T06:04:41;16.60;99.90
21590;DHT22;10957;50.968;6.828;2022-09-13T06:09:42;16.70;99.90
21590;DHT22;10957;50.968;6.828;2022-09-13T06:14:42;16.80;99.90
21590;DHT22;10957;50.968;6.828;2022-09-13T06:19:43;16.80;99.90
21590;DHT22;10957;50.968;6.828;2022-09-13T06:24:44;16.90;99.90
21590;DHT22;10957;50.968;6.828;2022-09-13T06:29:45;17.00;99.90
21590;DHT22;10957;50.968;6.828;2022-09-13T06:34:46;17.00;99.90
21590;DHT22;10957;50.968;6.828;2022-09-13T06:39:47;17.10;99.90
21590;DHT22;10957;50.968;6.828;2022-09-13T06:44:48;17.30;99.90
21590;DHT22;10957;50.968;6.828;2022-09-13T06:49:49;17.40;99.90
21590;DHT22;10957;50.968;6.828;2022-09-13T06:54:50;17.60;99.90
21590;DHT22;10957;50.968;6.828;2022-09-13T06:59:51;17.60;99.90
21590;DHT22;10957;50.968;6.828;2022-09-13T07:04:52;17.80;99.90
21590;DHT22;10957;50.968;6.828;2022-09-13T07:09:53;17.80;99.90
21590;DHT22;10957;50.968;6.828;2022-09-13T07:14:54;18.00;99.90
21590;DHT22;10957;50.968;6.828;2022-09-13T07:19:55;18.10;99.90
21590;DHT22;10957;50.968;6.828;2022-09-13T07:24:56;18.30;99.90
21590;DHT22;10957;50.968;6.828;2022-09-13T07:29:57;18.40;99.90
21590;DHT22;10957;50.968;6.828;2022-09-13T07:34:58;18.60;99.90
21590;DHT22;10957;50.968;6.828;2022-09-13T07:40:20;18.70;99.90
21590;DHT22;10957;50.968;6.828;2022-09-13T07:45:21;18.80;99.90
21590;DHT22;10957;50.968;6.828;2022-09-13T07:50:23;19.00;99.50
21590;DHT22;10957;50.968;6.828;2022-09-13T07:55:24;19.10;98.30
21590;DHT22;10957;50.968;6.828;2022-09-13T08:00:25;19.20;99.90
21590;DHT22;10957;50.968;6.828;2022-09-13T08:05:26;19.30;99.90
21590;DHT22;10957;50.968;6.828;2022-09-13T08:10:27;19.60;91.60
21590;DHT22;10957;50.968;6.828;2022-09-13T08:15:30;19.90;72.80
21590;DHT22;10957;50.968;6.828;2022-09-13T08:20:37;20.00;78.00
21590;DHT22;10957;50.968;6.828;2022-09-13T08:25:39;20.10;62.40
21590;DHT22;10957;50.968;6.828;2022-09-13T08:30:40;20.50;56.20
21590;DHT22;10957;50.968;6.828;2022-09-13T08:35:52;20.70;43.30
21590;DHT22;10957;50.968;6.828;2022-09-13T08:41:00;20.90;38.50
21590;DHT22;10957;50.968;6.828;2022-09-13T08:51:41;21.50;28.00
21590;DHT22;10957;50.968;6.828;2022-09-13T08:56:59;21.90;16.60
21590;DHT22;10957;50.968;6.828;2022-09-13T09:07:28;22.20;8.90
21590;DHT22;10957;50.968;6.828;2022-09-13T09:12:53;22.40;6.00
21590;DHT22;10957;50.968;6.828;2022-09-13T09:18:12;22.20;6.50
21590;DHT22;10957;50.968;6.828;2022-09-13T09:23:17;22.40;8.30
21590;DHT22;10957;50.968;6.828;2022-09-13T09:28:20;22.90;5.80
21590;DHT22;10957;50.968;6.828;2022-09-13T09:33:32;22.90;2.40
21590;DHT22;10957;50.968;6.828;2022-09-13T09:38:39;22.70;1.50
21590;DHT22;10957;50.968;6.828;2022-09-13T09:43:46;22.90;3.20
21590;DHT22;10957;50.968;6.828;2022-09-13T09:49:00;23.00;5.90
21590;DHT22;10957;50.968;6.828;2022-09-13T09:54:04;23.00;1.00
21590;DHT22;10957;50.968;6.828;2022-09-13T09:59:24;23.20;2.50
21590;DHT22;10957;50.968;6.828;2022-09-13T10:04:27;23.40;1.00
21590;DHT22;10957;50.968;6.828;2022-09-13T10:09:28;23.50;1.00
21590;DHT22;10957;50.968;6.828;2022-09-13T10:14:38;23.50;1.00
21590;DHT22;10957;50.968;6.828;2022-09-13T10:19:59;24.00;1.00
21590;DHT22;10957;50.968;6.828;2022-09-13T10:25:24;23.80;1.00
21590;DHT22;10957;50.968;6.828;2022-09-13T10:35:28;23.90;1.00
21590;DHT22;10957;50.968;6.828;2022-09-13T10:40:31;23.70;1.10
21590;DHT22;10957;50.968;6.828;2022-09-13T10:45:39;23.60;1.00
21590;DHT22;10957;50.968;6.828;2022-09-13T10:51:02;23.60;2.10
21590;DHT22;10957;50.968;6.828;2022-09-13T10:56:04;23.80;1.00
21590;DHT22;10957;50.968;6.828;2022-09-13T11:01:33;23.70;1.00
21590;DHT22;10957;50.968;6.828;2022-09-13T11:23:04;24.40;1.00
21590;DHT22;10957;50.968;6.828;2022-09-13T11:28:18;24.30;1.00
21590;DHT22;10957;50.968;6.828;2022-09-13T11:50:38;24.60;1.00
21590;DHT22;10957;50.968;6.828;2022-09-13T11:55:29;24.80;1.00
21590;DHT22;10957;50.968;6.828;2022-09-13T12:00:45;24.70;1.00
21590;DHT22;10957;50.968;6.828;2022-09-13T12:06:11;24.90;1.00
21590;DHT22;10957;50.968;6.828;2022-09-13T12:11:18;24.70;1.00
21590;DHT22;10957;50.968;6.828;2022-09-13T12:16:45;24.80;1.00
21590;DHT22;10957;50.968;6.828;2022-09-13T12:21:50;24.50;1.00
21590;DHT22;10957;50.968;6.828;2022-09-13T12:27:05;24.80;1.00
21590;DHT22;10957;50.968;6.828;2022-09-13T12:32:11;25.00;1.00
21590;DHT22;10957;50.968;6.828;2022-09-13T12:53:08;25.40;1.00
21590;DHT22;10957;50.968;6.828;2022-09-13T13:03:49;25.10;1.00
21590;DHT22;10957;50.968;6.828;2022-09-13T13:08:54;25.20;1.00
21590;DHT22;10957;50.968;6.828;2022-09-13T13:13:58;25.40;1.00
21590;DHT22;10957;50.968;6.828;2022-09-13T13:19:29;25.30;1.00
21590;DHT22;10957;50.968;6.828;2022-09-13T13:24:36;25.10;1.00
21590;DHT22;10957;50.968;6.828;2022-09-13T13:29:37;25.10;1.00
21590;DHT22;10957;50.968;6.828;2022-09-13T13:34:48;25.10;1.00
21590;DHT22;10957;50.968;6.828;2022-09-13T13:40:31;25.10;1.00
21590;DHT22;10957;50.968;6.828;2022-09-13T13:45:32;25.10;1.00
21590;DHT22;10957;50.968;6.828;2022-09-13T13:50:41;25.20;1.00
21590;DHT22;10957;50.968;6.828;2022-09-13T13:56:25;25.30;1.00
21590;DHT22;10957;50.968;6.828;2022-09-13T14:01:34;25.70;1.00
21590;DHT22;10957;50.968;6.828;2022-09-13T14:12:17;26.20;1.00
21590;DHT22;10957;50.968;6.828;2022-09-13T14:23:17;25.90;1.00
21590;DHT22;10957;50.968;6.828;2022-09-13T14:28:20;26.00;1.00
21590;DHT22;10957;50.968;6.828;2022-09-13T14:33:34;26.40;1.00
21590;DHT22;10957;50.968;6.828;2022-09-13T14:38:36;26.40;1.00
21590;DHT22;10957;50.968;6.828;2022-09-13T14:43:37;26.20;1.00
21590;DHT22;10957;50.968;6.828;2022-09-13T14:53:50;26.50;1.00
21590;DHT22;10957;50.968;6.828;2022-09-13T14:58:58;26.20;1.00
21590;DHT22;10957;50.968;6.828;2022-09-13T15:04:02;26.10;1.00
21590;DHT22;10957;50.968;6.828;2022-09-13T15:09:14;26.00;1.00
21590;DHT22;10957;50.968;6.828;2022-09-13T15:19:28;25.50;1.00
21590;DHT22;10957;50.968;6.828;2022-09-13T15:24:32;25.30;1.00
21590;DHT22;10957;50.968;6.828;2022-09-13T15:29:34;25.20;1.00
21590;DHT22;10957;50.968;6.828;2022-09-13T15:34:45;25.00;1.00
21590;DHT22;10957;50.968;6.828;2022-09-13T15:39:49;24.90;1.00
21590;DHT22;10957;50.968;6.828;2022-09-13T15:45:01;24.80;1.00
21590;DHT22;10957;50.968;6.828;2022-09-13T15:50:02;24.60;1.00
21590;DHT22;10957;50.968;6.828;2022-09-13T15:55:03;24.40;1.00
21590;DHT22;10957;50.968;6.828;2022-09-13T16:00:08;24.40;2.70
21590;DHT22;10957;50.968;6.828;2022-09-13T16:05:11;24.30;2.70
21590;DHT22;10957;50.968;6.828;2022-09-13T16:10:17;24.20;3.80
21590;DHT22;10957;50.968;6.828;2022-09-13T16:15:18;24.10;1.00
21590;DHT22;10957;50.968;6.828;2022-09-13T16:20:19;24.00;1.60
21590;DHT22;10957;50.968;6.828;2022-09-13T16:25:21;24.00;1.00
21590;DHT22;10957;50.968;6.828;2022-09-13T16:30:22;23.90;1.70
21590;DHT22;10957;50.968;6.828;2022-09-13T16:35:26;23.80;2.60
21590;DHT22;10957;50.968;6.828;2022-09-13T16:40:27;23.80;3.70
21590;DHT22;10957;50.968;6.828;2022-09-13T16:45:28;23.50;11.30
21590;DHT22;10957;50.968;6.828;2022-09-13T16:50:29;23.20;24.40
21590;DHT22;10957;50.968;6.828;2022-09-13T16:55:30;23.10;31.40
21590;DHT22;10957;50.968;6.828;2022-09-13T17:00:32;22.90;44.10
21590;DHT22;10957;50.968;6.828;2022-09-13T17:05:33;22.70;47.30
21590;DHT22;10957;50.968;6.828;2022-09-13T17:10:36;22.60;53.50
21590;DHT22;10957;50.968;6.828;2022-09-13T17:15:38;22.50;57.20
21590;DHT22;10957;50.968;6.828;2022-09-13T17:20:43;22.20;70.80
21590;DHT22;10957;50.968;6.828;2022-09-13T17:25:46;22.00;87.60
21590;DHT22;10957;50.968;6.828;2022-09-13T17:30:47;21.80;96.00
21590;DHT22;10957;50.968;6.828;2022-09-13T17:36:00;21.80;99.90
21590;DHT22;10957;50.968;6.828;2022-09-13T17:46:06;21.20;99.90
21590;DHT22;10957;50.968;6.828;2022-09-13T17:51:12;21.00;99.90
21590;DHT22;10957;50.968;6.828;2022-09-13T17:56:25;20.80;99.90
21590;DHT22;10957;50.968;6.828;2022-09-13T18:01:29;20.70;99.90
21590;DHT22;10957;50.968;6.828;2022-09-13T18:06:30;20.60;99.90
21590;DHT22;10957;50.968;6.828;2022-09-13T18:11:31;20.50;99.90
21590;DHT22;10957;50.968;6.828;2022-09-13T18:16:34;20.40;99.90
21590;DHT22;10957;50.968;6.828;2022-09-13T18:21:35;20.30;99.90
21590;DHT22;10957;50.968;6.828;2022-09-13T18:26:36;20.20;99.90
21590;DHT22;10957;50.968;6.828;2022-09-13T18:31:39;20.20;99.90
21590;DHT22;10957;50.968;6.828;2022-09-13T18:36:40;20.00;99.90
21590;DHT22;10957;50.968;6.828;2022-09-13T18:41:41;20.00;99.90
21590;DHT22;10957;50.968;6.828;2022-09-13T18:46:45;19.90;99.90
21590;DHT22;10957;50.968;6.828;2022-09-13T18:51:47;19.80;99.90
21590;DHT22;10957;50.968;6.828;2022-09-13T18:56:49;19.80;99.90
21590;DHT22;10957;50.968;6.828;2022-09-13T19:01:53;19.70;99.90
21590;DHT22;10957;50.968;6.828;2022-09-13T19:06:54;19.60;99.90
21590;DHT22;10957;50.968;6.828;2022-09-13T19:11:55;19.50;99.90
21590;DHT22;10957;50.968;6.828;2022-09-13T19:17:01;19.40;99.90
21590;DHT22;10957;50.968;6.828;2022-09-13T19:22:02;19.40;99.90
21590;DHT22;10957;50.968;6.828;2022-09-13T19:27:04;19.40;99.90
21590;DHT22;10957;50.968;6.828;2022-09-13T19:32:05;19.40;99.90
21590;DHT22;10957;50.968;6.828;2022-09-13T19:37:12;19.40;99.90
21590;DHT22;10957;50.968;6.828;2022-09-13T19:42:13;19.30;99.90
21590;DHT22;10957;50.968;6.828;2022-09-13T19:47:14;19.30;99.90
21590;DHT22;10957;50.968;6.828;2022-09-13T19:52:20;19.30;99.90
21590;DHT22;10957;50.968;6.828;2022-09-13T19:57:22;19.30;99.90
21590;DHT22;10957;50.968;6.828;2022-09-13T20:02:31;19.30;99.90
21590;DHT22;10957;50.968;6.828;2022-09-13T20:07:36;19.20;99.90
21590;DHT22;10957;50.968;6.828;2022-09-13T20:12:44;19.30;99.90
21590;DHT22;10957;50.968;6.828;2022-09-13T20:17:45;19.20;99.90
21590;DHT22;10957;50.968;6.828;2022-09-13T20:22:45;19.20;99.90
21590;DHT22;10957;50.968;6.828;2022-09-13T20:27:47;19.20;99.90
21590;DHT22;10957;50.968;6.828;2022-09-13T20:33:02;19.20;99.90
21590;DHT22;10957;50.968;6.828;2022-09-13T20:38:04;19.20;99.90
21590;DHT22;10957;50.968;6.828;2022-09-13T20:43:05;19.10;99.90
21590;DHT22;10957;50.968;6.828;2022-09-13T20:48:06;19.20;99.90
21590;DHT22;10957;50.968;6.828;2022-09-13T20:53:07;19.20;99.90
21590;DHT22;10957;50.968;6.828;2022-09-13T20:58:08;19.10;99.90
21590;DHT22;10957;50.968;6.828;2022-09-13T21:03:09;19.10;99.90
21590;DHT22;10957;50.968;6.828;2022-09-13T21:08:15;19.10;99.90
21590;DHT22;10957;50.968;6.828;2022-09-13T21:13:54;19.00;99.90
21590;DHT22;10957;50.968;6.828;2022-09-13T21:18:59;19.10;99.90
21590;DHT22;10957;50.968;6.828;2022-09-13T21:24:04;19.00;99.90
21590;DHT22;10957;50.968;6.828;2022-09-13T21:29:09;19.10;99.90
21590;DHT22;10957;50.968;6.828;2022-09-13T21:34:13;19.00;99.90
21590;DHT22;10957;50.968;6.828;2022-09-13T21:39:15;19.00;99.90
21590;DHT22;10957;50.968;6.828;2022-09-13T21:44:16;19.00;99.90
21590;DHT22;10957;50.968;6.828;2022-09-13T21:49:17;19.00;99.90
21590;DHT22;10957;50.968;6.828;2022-09-13T21:54:19;19.00;99.90
21590;DHT22;10957;50.968;6.828;2022-09-13T21:59:21;19.00;99.90
21590;DHT22;10957;50.968;6.828;2022-09-13T22:04:26;19.00;99.90
21590;DHT22;10957;50.968;6.828;2022-09-13T22:09:27;19.00;99.90
21590;DHT22;10957;50.968;6.828;2022-09-13T22:14:28;18.90;99.90
21590;DHT22;10957;50.968;6.828;2022-09-13T22:19:29;18.90;99.90
21590;DHT22;10957;50.968;6.828;2022-09-13T22:24:31;18.90;99.90
21590;DHT22;10957;50.968;6.828;2022-09-13T22:29:33;18.90;99.90
21590;DHT22;10957;50.968;6.828;2022-09-13T22:34:34;18.90;99.90
21590;DHT22;10957;50.968;6.828;2022-09-13T22:39:35;18.80;99.90
21590;DHT22;10957;50.968;6.828;2022-09-13T22:44:36;18.80;99.90
21590;DHT22;10957;50.968;6.828;2022-09-13T22:49:37;18.80;99.90
21590;DHT22;10957;50.968;6.828;2022-09-13T22:54:38;18.80;99.90
21590;DHT22;10957;50.968;6.828;2022-09-13T22:59:40;18.70;99.90
21590;DHT22;10957;50.968;6.828;2022-09-13T23:04:44;18.70;99.90
21590;DHT22;10957;50.968;6.828;2022-09-13T23:09:45;18.70;99.90
21590;DHT22;10957;50.968;6.828;2022-09-13T23:14:46;18.70;99.90
21590;DHT22;10957;50.968;6.828;2022-09-13T23:19:46;18.70;99.90
21590;DHT22;10957;50.968;6.828;2022-09-13T23:24:47;18.70;99.90
21590;DHT22;10957;50.968;6.828;2022-09-13T23:29:51;18.70;99.90
21590;DHT22;10957;50.968;6.828;2022-09-13T23:34:52;18.80;99.90
21590;DHT22;10957;50.968;6.828;2022-09-13T23:39:53;18.70;99.90
21590;DHT22;10957;50.968;6.828;2022-09-13T23:44:57;18.70;99.90
21590;DHT22;10957;50.968;6.828;2022-09-13T23:49:58;18.70;99.90
21590;DHT22;10957;50.968;6.828;2022-09-13T23:54:59;18.80;99.90
